createdAt,value
2018-01-27T00:02:01.719Z,28.37
2018-01-27T00:04:29.385Z,23.17
2018-01-27T00:06:57.253Z,30.20
2018-01-27T00:09:24.805Z,28.13
2018-01-27T00:11:52.441Z,26.47
2018-01-27T00:14:20.963Z,28.43
2018-01-27T00:16:49.535Z,30.90
2018-01-27T00:19:17.158Z,26.80
2018-01-27T00:21:44.806Z,25.97
2018-01-27T00:24:13.726Z,27.80
2018-01-27T00:26:42.114Z,26.43
2018-01-27T00:29:09.711Z,33.23
2018-01-27T00:31:37.434Z,31.33
2018-01-27T00:34:06.103Z,26.77
2018-01-27T00:36:34.666Z,28.23
2018-01-27T00:39:02.254Z,26.60
2018-01-27T00:41:29.837Z,28.17
2018-01-27T00:43:57.439Z,32.33
2018-01-27T00:48:59.722Z,29.03
2018-01-27T00:51:27.292Z,27.47
2018-01-27T00:53:55.566Z,34.97
2018-01-27T00:56:23.161Z,35.83
2018-01-27T00:58:50.762Z,30.00
2018-01-27T01:01:19.096Z,36.50
2018-01-27T01:03:46.704Z,28.03
2018-01-27T01:08:48.351Z,31.60
2018-01-27T01:11:15.922Z,32.27
2018-01-27T01:13:43.521Z,33.73
2018-01-27T01:16:11.861Z,38.63
2018-01-27T01:18:40.178Z,39.17
2018-01-27T01:21:07.761Z,40.70
2018-01-27T01:23:35.334Z,36.97
2018-01-27T01:26:02.896Z,31.43
2018-01-27T01:28:30.501Z,33.97
2018-01-27T01:30:58.093Z,30.63
2018-01-27T01:33:26.457Z,31.97
2018-01-27T01:35:54.023Z,35.83
2018-01-27T01:38:21.608Z,32.00
2018-01-27T01:40:49.200Z,40.60
2018-01-27T01:43:22.513Z,35.63
2018-01-27T01:45:50.861Z,37.90
2018-01-27T01:48:18.438Z,45.20
2018-01-27T01:50:46.002Z,38.33
2018-01-27T01:53:13.582Z,49.70
2018-01-27T01:55:41.197Z,32.07
2018-01-27T01:58:08.769Z,44.10
2018-01-27T02:00:36.444Z,48.90
2018-01-27T02:03:04.864Z,37.47
2018-01-27T02:05:32.454Z,44.30
2018-01-27T02:08:00.017Z,44.27
2018-01-27T02:10:27.598Z,41.87
2018-01-27T02:12:55.223Z,53.23
2018-01-27T02:15:22.828Z,49.47
2018-01-27T02:17:50.384Z,52.63
2018-01-27T02:20:17.973Z,58.33
2018-01-27T02:22:45.543Z,53.27
2018-01-27T02:25:13.122Z,49.37
2018-01-27T02:27:40.720Z,57.67
2018-01-27T02:30:08.388Z,53.80
2018-01-27T02:32:35.989Z,59.20
2018-01-27T02:35:03.601Z,60.17
2018-01-27T02:37:31.192Z,86.53
2018-01-27T02:39:58.795Z,56.43
2018-01-27T02:42:26.366Z,47.80
2018-01-27T02:44:54.919Z,61.63
2018-01-27T02:47:23.028Z,98.53
2018-01-27T02:49:50.614Z,64.97
2018-01-27T02:52:18.192Z,70.07
2018-01-27T02:54:45.790Z,65.27
2018-01-27T02:57:14.183Z,68.33
2018-01-27T02:59:42.533Z,62.00
2018-01-27T03:02:10.113Z,45.30
2018-01-27T03:04:37.802Z,49.57
2018-01-27T03:07:05.366Z,44.43
2018-01-27T03:09:33.712Z,37.87
2018-01-27T03:12:01.340Z,40.73
2018-01-27T03:14:28.945Z,38.20
2018-01-27T03:16:56.542Z,33.60
2018-01-27T03:19:24.149Z,41.37
2018-01-27T03:21:51.719Z,34.33
2018-01-27T03:24:19.324Z,35.20
2018-01-27T03:26:47.651Z,42.77
2018-01-27T03:29:15.278Z,38.67
2018-01-27T03:31:42.838Z,35.67
2018-01-27T03:34:11.202Z,37.30
2018-01-27T03:36:38.939Z,33.33
2018-01-27T03:39:06.538Z,33.10
2018-01-27T03:41:34.110Z,36.17
2018-01-27T03:44:01.706Z,29.90
2018-01-27T03:46:29.290Z,30.63
2018-01-27T03:48:56.877Z,39.10
2018-01-27T03:51:25.210Z,33.33
2018-01-27T03:53:52.827Z,39.40
2018-01-27T03:56:20.398Z,42.37
2018-01-27T03:58:47.972Z,36.97
2018-01-27T04:01:15.542Z,36.37
2018-01-27T04:03:43.126Z,31.20
2018-01-27T04:08:45.431Z,35.23
2018-01-27T04:11:13.014Z,38.27
2018-01-27T04:13:41.343Z,38.17
2018-01-27T04:16:09.212Z,42.33
2018-01-27T04:18:36.776Z,43.43
2018-01-27T04:21:04.385Z,31.60
2018-01-27T04:23:31.956Z,39.03
2018-01-27T04:25:59.543Z,35.63
2018-01-27T04:28:27.096Z,36.63
2018-01-27T04:30:54.674Z,31.40
2018-01-27T04:33:22.286Z,38.17
2018-01-27T04:35:50.607Z,35.00
2018-01-27T04:38:18.172Z,33.73
2018-01-27T04:40:45.763Z,35.07
2018-01-27T04:43:13.333Z,38.60
2018-01-27T04:45:40.904Z,37.70
2018-01-27T04:48:08.500Z,36.00
2018-01-27T04:50:36.070Z,39.70
2018-01-27T04:53:03.700Z,40.23
2018-01-27T04:55:31.265Z,40.13
2018-01-27T04:57:58.930Z,37.60
2018-01-27T05:00:27.268Z,37.10
2018-01-27T05:02:54.861Z,37.57
2018-01-27T05:05:22.419Z,40.90
2018-01-27T05:07:50.771Z,40.77
2018-01-27T05:10:18.343Z,32.43
2018-01-27T05:12:45.938Z,33.90
2018-01-27T05:15:13.498Z,39.27
2018-01-27T05:17:41.086Z,35.53
2018-01-27T05:20:08.665Z,36.60
2018-01-27T05:22:36.251Z,43.60
2018-01-27T05:25:03.806Z,38.07
2018-01-27T05:27:31.394Z,41.63
2018-01-27T05:29:59.735Z,39.87
2018-01-27T05:32:27.331Z,39.87
2018-01-27T05:34:54.947Z,33.23
2018-01-27T05:37:23.354Z,34.10
2018-01-27T05:39:51.687Z,31.90
2018-01-27T05:42:19.246Z,39.40
2018-01-27T05:44:46.843Z,39.30
2018-01-27T05:47:14.411Z,38.63
2018-01-27T05:49:42.006Z,40.63
2018-01-27T05:52:09.598Z,36.67
2018-01-27T05:54:39.163Z,43.70
2018-01-27T05:57:06.746Z,38.17
2018-01-27T05:59:34.341Z,42.27
2018-01-27T06:02:01.974Z,34.20
2018-01-27T06:04:29.627Z,34.40
2018-01-27T06:06:57.952Z,41.47
2018-01-27T06:09:25.543Z,37.03
2018-01-27T06:11:53.145Z,40.20
2018-01-27T06:14:21.516Z,33.87
2018-01-27T06:16:50.260Z,36.53
2018-01-27T06:19:17.861Z,34.77
2018-01-27T06:21:45.448Z,34.13
2018-01-27T06:24:13.081Z,30.67
2018-01-27T06:26:40.638Z,21.97
2018-01-27T06:29:08.248Z,54.50
2018-01-27T06:31:35.828Z,19.77
2018-01-27T06:34:03.419Z,21.23
2018-01-27T06:36:31.026Z,34.07
2018-01-27T06:38:59.391Z,23.10
2018-01-27T06:41:27.022Z,28.93
2018-01-27T06:43:54.625Z,28.00
2018-01-27T06:46:22.199Z,27.20
2018-01-27T06:48:49.822Z,27.90
2018-01-27T06:51:17.405Z,31.40
2018-01-27T06:53:45.008Z,29.83
2018-01-27T06:56:12.609Z,32.93
2018-01-27T06:58:40.370Z,28.43
2018-01-27T07:01:07.954Z,56.20
2018-01-27T07:03:36.304Z,29.87
2018-01-27T07:06:03.938Z,27.23
2018-01-27T07:08:31.526Z,177.70
2018-01-27T07:10:59.689Z,293.53
2018-01-27T07:13:28.765Z,139.40
2018-01-27T07:15:56.398Z,76.43
2018-01-27T07:18:24.023Z,129.90
2018-01-27T07:20:51.685Z,38.40
2018-01-27T07:23:20.526Z,34.53
2018-01-27T07:25:48.881Z,51.77
2018-01-27T07:28:16.463Z,102.67
2018-01-27T07:30:44.106Z,63.07
2018-01-27T07:33:11.720Z,64.13
2018-01-27T07:35:40.947Z,35.03
2018-01-27T07:38:09.309Z,28.17
2018-01-27T07:40:36.968Z,32.83
2018-01-27T07:43:04.555Z,37.10
2018-01-27T07:45:32.260Z,37.90
2018-01-27T07:47:59.900Z,44.40
2018-01-27T07:50:27.578Z,152.27
2018-01-27T07:52:55.178Z,58.90
2018-01-27T07:55:22.868Z,128.27
2018-01-27T07:57:50.514Z,39.63
2018-01-27T08:00:18.863Z,40.83
2018-01-27T08:02:46.535Z,162.23
2018-01-27T08:05:14.875Z,345.03
2018-01-27T08:07:43.236Z,202.83
2018-01-27T08:10:12.141Z,341.07
2018-01-27T08:12:40.168Z,231.77
2018-01-27T08:17:41.806Z,109.47
2018-01-27T08:20:09.412Z,88.63
2018-01-27T08:22:36.990Z,372.17
2018-01-27T08:25:05.356Z,293.63
2018-01-27T08:27:34.035Z,439.80
2018-01-27T08:30:01.614Z,174.00
2018-01-27T08:32:30.562Z,136.67
2018-01-27T08:34:58.255Z,396.43
2018-01-27T08:37:25.967Z,205.07
2018-01-27T08:39:54.843Z,62.20
2018-01-27T08:42:23.103Z,34.37
2018-01-27T08:44:50.716Z,25.97
2018-01-27T08:47:18.326Z,26.87
2018-01-27T08:49:45.904Z,20.87
2018-01-27T08:52:14.687Z,22.77
2018-01-27T08:54:43.255Z,20.47
2018-01-27T08:57:10.827Z,21.83
2018-01-27T08:59:38.901Z,21.97
2018-01-27T09:02:07.559Z,19.67
2018-01-27T09:04:35.971Z,20.40
2018-01-27T09:07:05.123Z,20.47
2018-01-27T09:09:32.738Z,22.33
2018-01-27T09:12:01.071Z,59.03
2018-01-27T09:14:29.481Z,404.20
2018-01-27T09:16:57.069Z,589.83
2018-01-27T09:19:25.480Z,258.30
2018-01-27T09:21:54.977Z,240.10
2018-01-27T09:24:22.630Z,28.87
2018-01-27T09:26:50.234Z,92.13
2018-01-27T09:29:17.838Z,23.17
2018-01-27T09:31:45.456Z,76.70
2018-01-27T09:34:13.008Z,25.33
2018-01-27T09:36:41.635Z,20.43
2018-01-27T09:39:09.213Z,320.47
2018-01-27T09:41:37.674Z,22.23
2018-01-27T09:44:06.553Z,27.27
2018-01-27T09:46:34.817Z,55.03
2018-01-27T09:49:03.623Z,689.57
2018-01-27T09:51:32.130Z,452.40
2018-01-27T09:54:00.262Z,37.37
2018-01-27T09:56:28.156Z,179.20
2018-01-27T09:58:55.791Z,23.63
2018-01-27T10:01:24.164Z,23.77
2018-01-27T10:03:52.370Z,50.30
2018-01-27T10:06:19.984Z,25.13
2018-01-27T10:08:47.635Z,21.53
2018-01-27T10:11:15.930Z,27.70
2018-01-27T10:17:40.002Z,26.60
2018-01-27T10:20:07.660Z,25.87
2018-01-27T10:22:35.297Z,26.30
2018-01-27T10:25:03.798Z,23.90
2018-01-27T10:27:31.389Z,30.47
2018-01-27T10:29:59.090Z,26.30
2018-01-27T10:32:27.289Z,21.10
2018-01-27T10:34:55.697Z,22.13
2018-01-27T10:37:23.368Z,24.93
2018-01-27T10:39:50.955Z,23.13
2018-01-27T10:42:19.287Z,26.13
2018-01-27T10:44:46.880Z,25.23
2018-01-27T10:47:14.520Z,32.47
2018-01-27T10:49:42.103Z,44.13
2018-01-27T10:52:09.783Z,46.77
2018-01-27T10:54:38.731Z,60.87
2018-01-27T10:57:06.393Z,46.73
2018-01-27T10:59:35.591Z,46.27
2018-01-27T11:02:05.939Z,44.47
2018-01-27T11:04:33.659Z,38.93
2018-01-27T11:07:02.967Z,37.37
2018-01-27T11:09:32.361Z,41.43
2018-01-27T11:11:59.947Z,37.63
2018-01-27T11:14:29.995Z,49.30
2018-01-27T11:16:58.376Z,45.67
2018-01-27T11:19:27.245Z,33.57
2018-01-27T11:21:54.855Z,47.53
2018-01-27T11:24:23.000Z,41.23
2018-01-27T11:26:50.640Z,40.20
2018-01-27T11:29:18.272Z,35.60
2018-01-27T11:31:46.723Z,41.53
2018-01-27T11:34:14.758Z,39.00
2018-01-27T11:36:42.395Z,46.57
2018-01-27T11:39:10.588Z,32.57
2018-01-27T11:41:38.511Z,36.50
2018-01-27T11:44:06.706Z,40.30
2018-01-27T11:46:35.050Z,36.57
2018-01-27T11:49:02.663Z,33.20
2018-01-27T11:51:31.074Z,35.27
2018-01-27T11:53:58.790Z,36.17
2018-01-27T11:56:26.423Z,37.60
2018-01-27T11:58:55.053Z,32.23
2018-01-27T12:01:25.768Z,33.93
2018-01-27T12:03:53.624Z,37.80
2018-01-27T12:06:21.243Z,39.53
2018-01-27T12:08:49.734Z,43.00
2018-01-27T12:11:17.419Z,38.97
2018-01-27T12:13:45.062Z,36.40
2018-01-27T12:16:12.968Z,38.17
2018-01-27T12:18:41.368Z,38.33
2018-01-27T12:21:09.018Z,35.13
2018-01-27T12:23:37.678Z,36.37
2018-01-27T12:26:06.031Z,34.20
2018-01-27T12:28:33.628Z,39.37
2018-01-27T12:31:02.492Z,33.47
2018-01-27T12:33:31.157Z,36.77
2018-01-27T12:35:59.515Z,36.00
2018-01-27T12:38:27.657Z,32.70
2018-01-27T12:40:55.878Z,33.97
2018-01-27T12:43:24.953Z,30.93
2018-01-27T12:45:52.631Z,30.40
2018-01-27T12:48:21.067Z,29.87
2018-01-27T12:50:49.759Z,27.90
2018-01-27T12:53:17.484Z,29.03
2018-01-27T12:55:47.239Z,27.57
2018-01-27T12:58:14.933Z,27.00
2018-01-27T13:00:43.294Z,26.43
2018-01-27T13:03:12.400Z,25.20
2018-01-27T13:05:39.986Z,25.13
2018-01-27T13:08:08.385Z,27.47
2018-01-27T13:10:36.767Z,29.60
2018-01-27T13:13:05.142Z,28.50
2018-01-27T13:15:32.766Z,27.00
2018-01-27T13:18:00.352Z,24.33
2018-01-27T13:20:28.593Z,28.13
2018-01-27T13:22:56.210Z,28.50
2018-01-27T13:25:23.817Z,28.77
2018-01-27T13:27:51.408Z,26.70
2018-01-27T13:30:19.064Z,27.70
2018-01-27T13:32:46.681Z,30.63
2018-01-27T13:35:14.284Z,30.20
2018-01-27T13:37:43.227Z,31.27
2018-01-27T13:40:10.922Z,26.23
2018-01-27T13:42:40.166Z,29.07
2018-01-27T13:45:08.513Z,26.27
2018-01-27T13:47:37.651Z,28.97
2018-01-27T13:50:05.732Z,25.50
2018-01-27T13:52:33.449Z,27.83
2018-01-27T13:55:01.052Z,26.10
2018-01-27T13:57:28.705Z,26.97
2018-01-27T13:59:57.043Z,25.73
2018-01-27T14:02:24.768Z,27.07
2018-01-27T14:04:54.951Z,27.23
2018-01-27T14:07:24.191Z,28.70
2018-01-27T14:09:52.800Z,30.87
2018-01-27T14:12:22.008Z,25.33
2018-01-27T14:14:51.505Z,24.47
2018-01-27T14:17:19.191Z,24.90
2018-01-27T14:19:47.322Z,29.43
2018-01-27T14:22:16.714Z,24.17
2018-01-27T14:24:46.792Z,32.03
2018-01-27T14:27:14.749Z,46.47
2018-01-27T14:29:42.560Z,32.07
2018-01-27T14:32:10.308Z,25.00
2018-01-27T14:34:39.656Z,27.73
2018-01-27T14:37:07.292Z,26.90
2018-01-27T14:39:35.658Z,25.87
2018-01-27T14:42:03.299Z,26.37
2018-01-27T14:44:30.989Z,26.10
2018-01-27T14:47:00.538Z,27.67
2018-01-27T14:49:29.834Z,27.37
2018-01-27T14:51:58.787Z,32.53
2018-01-27T14:54:27.038Z,30.27
2018-01-27T14:56:56.196Z,30.47
2018-01-27T14:59:23.795Z,29.37
2018-01-27T15:01:51.405Z,27.60
2018-01-27T15:04:19.752Z,28.47
2018-01-27T15:06:48.373Z,26.00
2018-01-27T15:09:16.103Z,25.07
2018-01-27T15:11:43.829Z,29.53
2018-01-27T15:14:11.428Z,29.50
2018-01-27T15:16:41.038Z,30.83
2018-01-27T15:19:08.767Z,31.27
2018-01-27T15:21:36.350Z,37.43
2018-01-27T15:24:03.953Z,33.33
2018-01-27T15:26:31.586Z,38.47
2018-01-27T15:28:59.240Z,38.83
2018-01-27T15:31:27.845Z,35.90
2018-01-27T15:33:56.503Z,40.20
2018-01-27T15:36:24.588Z,39.63
2018-01-27T15:38:52.829Z,37.93
2018-01-27T15:41:20.473Z,35.83
2018-01-27T15:43:48.888Z,36.63
2018-01-27T15:46:16.826Z,47.20
2018-01-27T15:48:45.209Z,38.53
2018-01-27T15:54:11.767Z,42.10
2018-01-27T15:56:40.361Z,39.03
2018-01-27T15:59:07.937Z,42.00
2018-01-27T16:01:36.405Z,44.50
2018-01-27T16:04:04.011Z,57.27
2018-01-27T16:06:31.619Z,57.70
2018-01-27T16:08:59.256Z,45.83
2018-01-27T16:11:27.924Z,62.67
2018-01-27T16:13:55.551Z,50.90
2018-01-27T16:16:23.904Z,67.90
2018-01-27T16:18:52.018Z,42.67
2018-01-27T16:21:20.492Z,42.70
2018-01-27T16:23:48.902Z,33.83
2018-01-27T16:26:16.525Z,30.67
2018-01-27T16:28:44.144Z,35.40
2018-01-27T16:31:11.742Z,36.13
2018-01-27T16:33:40.164Z,53.30
2018-01-27T16:36:07.799Z,54.73
2018-01-27T16:41:33.095Z,65.33
2018-01-27T16:44:00.735Z,94.73
2018-01-27T16:46:28.318Z,38.13
2018-01-27T16:48:56.117Z,39.30
2018-01-27T16:51:24.503Z,33.43
2018-01-27T16:53:52.102Z,35.67
2018-01-27T16:56:19.791Z,32.53
2018-01-27T16:58:47.406Z,36.33
2018-01-27T17:01:14.962Z,40.90
2018-01-27T17:03:42.630Z,42.13
2018-01-27T17:06:11.189Z,38.87
2018-01-27T17:08:39.005Z,41.97
2018-01-27T17:11:06.617Z,44.70
2018-01-27T17:13:34.260Z,52.50
2018-01-27T17:16:01.897Z,49.10
2018-01-27T17:18:30.268Z,40.97
2018-01-27T17:20:57.845Z,50.57
2018-01-27T17:23:26.209Z,45.50
2018-01-27T17:25:53.828Z,64.73
2018-01-27T17:28:22.654Z,50.80
2018-01-27T17:30:53.368Z,71.00
2018-01-27T17:33:21.512Z,56.13
2018-01-27T17:35:51.105Z,64.83
2018-01-27T17:38:20.860Z,52.40
2018-01-27T17:40:49.669Z,84.80
2018-01-27T17:43:20.772Z,75.23
2018-01-27T17:45:48.929Z,98.93
2018-01-27T17:48:19.426Z,90.87
2018-01-27T17:50:48.632Z,99.83
2018-01-27T17:53:17.715Z,85.67
2018-01-27T17:55:45.892Z,55.93
2018-01-27T17:58:15.445Z,55.87
2018-01-27T18:00:44.761Z,50.30
2018-01-27T18:03:13.027Z,66.33
2018-01-27T18:05:42.344Z,43.80
2018-01-27T18:08:12.214Z,50.07
2018-01-27T18:10:41.319Z,57.93
2018-01-27T18:13:11.222Z,43.73
2018-01-27T18:15:42.117Z,46.37
2018-01-27T18:18:12.456Z,37.23
2018-01-27T18:20:40.847Z,33.27
2018-01-27T18:23:11.711Z,32.53
2018-01-27T18:25:41.920Z,33.57
2018-01-27T18:28:10.895Z,27.47
2018-01-27T18:30:39.345Z,25.53
2018-01-27T18:33:07.606Z,26.63
2018-01-27T18:35:35.846Z,24.50
2018-01-27T18:38:07.979Z,20.77
2018-01-27T18:40:37.490Z,24.20
2018-01-27T18:43:06.392Z,22.40
2018-01-27T19:10:41.223Z,28.87
2018-01-27T19:13:08.860Z,16.27
2018-01-27T19:15:36.474Z,16.37
2018-01-27T19:18:05.540Z,19.20
2018-01-27T19:20:33.107Z,17.60
2018-01-27T19:23:01.239Z,16.60
2018-01-27T19:25:28.840Z,16.97
2018-01-27T19:27:57.194Z,17.10
2018-01-27T19:30:24.765Z,21.33
2018-01-27T19:32:52.346Z,18.20
2018-01-27T19:35:20.402Z,18.17
2018-01-27T19:50:19.949Z,19.60
2018-01-27T19:52:48.239Z,21.07
2018-01-27T19:55:17.298Z,19.43
2018-01-27T19:57:45.692Z,21.67
2018-01-27T20:00:15.011Z,17.80
2018-01-27T20:02:43.229Z,23.00
2018-01-27T20:05:12.944Z,19.83
2018-01-27T20:07:42.447Z,22.80
2018-01-27T20:10:11.346Z,24.50
2018-01-27T20:12:39.585Z,25.87
2018-01-27T20:15:08.098Z,24.83
2018-01-27T20:17:36.752Z,25.77
2018-01-27T20:20:05.814Z,21.37
2018-01-27T20:22:34.507Z,22.40
2018-01-27T20:25:03.442Z,24.27
2018-01-27T20:27:32.046Z,49.40
2018-01-27T20:30:00.923Z,22.13
2018-01-27T20:32:29.190Z,37.93
2018-01-27T20:34:57.497Z,22.03
2018-01-27T20:37:26.940Z,20.13
2018-01-27T20:39:56.887Z,25.07
2018-01-27T20:42:25.785Z,24.33
2018-01-27T20:44:54.691Z,20.83
2018-01-27T20:47:23.985Z,24.93
2018-01-27T20:49:53.477Z,23.30
2018-01-27T20:52:22.512Z,22.13
2018-01-27T20:54:51.670Z,22.60
2018-01-27T20:57:19.674Z,25.00
2018-01-27T20:59:49.704Z,20.53
2018-01-27T21:02:21.255Z,20.87
2018-01-27T21:04:49.382Z,22.77
2018-01-27T21:07:18.555Z,23.70
2018-01-27T21:09:46.940Z,23.77
2018-01-27T21:12:15.637Z,19.83
2018-01-27T21:14:44.631Z,21.17
2018-01-27T21:17:13.557Z,22.57
2018-01-27T21:19:43.851Z,22.97
2018-01-27T21:22:12.081Z,18.57
2018-01-27T21:24:40.436Z,22.17
2018-01-27T21:27:08.356Z,23.37
2018-01-27T21:29:37.263Z,21.87
2018-01-27T21:32:05.515Z,22.73
2018-01-27T21:34:33.648Z,20.73
2018-01-27T21:37:02.916Z,20.30
2018-01-27T21:39:31.085Z,23.63
2018-01-27T21:42:00.033Z,19.97
2018-01-27T21:44:29.687Z,20.30
2018-01-27T21:46:58.705Z,22.33
2018-01-27T21:49:28.020Z,20.53
2018-01-27T21:51:56.084Z,24.63
2018-01-27T21:54:24.394Z,21.63
2018-01-27T21:56:52.507Z,22.63
2018-01-27T21:59:21.350Z,21.20
2018-01-27T22:01:50.223Z,22.93
2018-01-27T22:04:19.242Z,21.20
2018-01-27T22:06:47.600Z,21.10
2018-01-27T22:09:17.421Z,21.53
2018-01-27T22:11:45.443Z,22.50
2018-01-27T22:14:14.344Z,23.30
2018-01-27T22:16:42.403Z,22.03
2018-01-27T22:19:11.286Z,20.53
2018-01-27T22:21:41.753Z,19.10
2018-01-27T22:24:09.360Z,25.03
2018-01-27T22:29:10.989Z,21.90
2018-01-27T22:31:38.691Z,21.80
2018-01-27T22:34:06.255Z,20.40
2018-01-27T22:36:33.861Z,25.30
2018-01-27T23:22:42.370Z,19.77
2018-01-27T23:25:09.954Z,20.97
2018-01-27T23:27:37.717Z,20.30
2018-01-27T23:30:05.329Z,20.47
2018-01-27T23:32:32.948Z,20.80
2018-01-27T23:35:00.540Z,20.90
2018-01-27T23:37:28.207Z,19.87
2018-01-27T23:39:55.819Z,17.70
2018-01-27T23:42:23.400Z,17.83
2018-01-27T23:44:51.003Z,17.60
2018-01-27T23:47:18.696Z,16.60
2018-01-27T23:49:47.075Z,17.50
2018-01-27T23:52:14.630Z,19.27
2018-01-27T23:54:42.188Z,16.63
2018-01-27T23:57:09.763Z,16.83
2018-01-27T23:59:37.426Z,17.60
